Time;durP1;ratioP1;P1;durP2;ratioP2;P2;SDS_P1;SDS_P2;PMS_P1;PMS_P2;Temp;Humidity;BMP_temperature;BMP_pressure;BME280_temperature;BME280_humidity;BME280_pressure;Samples;Min_cycle;Max_cycle;Signal;HPM_P1;HPM_P2
2022/01/26 00:06:43;;;;;;;104.57;35.38;;;5.70;91.40;;;;;;6216433;23;20046;-62
2022/01/26 00:09:08;;;;;;;83.97;34.70;;;5.60;91.30;;;;;;6239440;23;20000;-61
2022/01/26 00:11:34;;;;;;;102.57;34.80;;;5.60;91.30;;;;;;6210810;23;20031;-62
2022/01/26 00:14:01;;;;;;;98.15;32.78;;;5.60;91.30;;;;;;6211645;23;20035;-62
2022/01/26 00:16:39;;;;;;;94.45;34.17;;;5.60;91.30;;;;;;6213314;23;20008;-61
2022/01/26 00:19:06;;;;;;;92.88;32.88;;;5.60;91.30;;;;;;6241164;23;20008;-62
2022/01/26 00:21:40;;;;;;;111.75;34.72;;;5.60;91.30;;;;;;6190590;23;20326;-62
2022/01/26 00:24:22;;;;;;;77.38;31.63;;;5.60;91.30;;;;;;6214019;23;20015;-60
2022/01/26 00:29:40;;;;;;;89.00;34.90;;;5.50;91.20;;;;;;6214792;23;20048;-62
2022/01/26 00:40:31;;;;;;;87.18;31.63;;;5.50;91.20;;;;;;6216560;23;20058;-62
2022/01/26 00:43:02;;;;;;;83.80;31.60;;;5.40;91.20;;;;;;6194320;23;20004;-61
2022/01/26 00:45:34;;;;;;;82.10;31.55;;;5.40;91.20;;;;;;6215044;23;20004;-60
2022/01/26 00:48:03;;;;;;;80.32;29.75;;;5.40;91.30;;;;;;6190853;23;20075;-62
2022/01/26 00:50:30;;;;;;;93.90;30.58;;;5.40;91.20;;;;;;6238146;23;20429;-60
2022/01/26 00:52:55;;;;;;;75.32;30.63;;;5.40;91.20;;;;;;6187917;23;20407;-60
2022/01/26 00:55:21;;;;;;;86.07;28.75;;;5.30;91.20;;;;;;6163998;23;20079;-62
2022/01/26 00:57:46;;;;;;;72.22;28.90;;;5.30;91.20;;;;;;6164467;23;20016;-60
2022/01/26 01:00:15;;;;;;;71.88;30.13;;;5.30;91.10;;;;;;6240187;23;20067;-62
2022/01/26 01:02:41;;;;;;;69.50;28.17;;;5.30;91.10;;;;;;6211941;23;20015;-62
2022/01/26 01:05:15;;;;;;;67.25;29.27;;;5.30;91.20;;;;;;6212273;23;20086;-62
2022/01/26 01:07:42;;;;;;;69.18;28.35;;;5.20;91.20;;;;;;6192710;23;20004;-61
2022/01/26 01:10:08;;;;;;;63.85;27.42;;;5.20;91.20;;;;;;6188687;23;19996;-62
2022/01/26 01:12:39;;;;;;;70.28;28.27;;;5.20;91.20;;;;;;6215027;23;20004;-61
2022/01/26 01:15:06;;;;;;;70.03;27.25;;;5.20;91.20;;;;;;6191005;23;20001;-61
2022/01/26 01:17:38;;;;;;;71.10;28.08;;;5.20;91.20;;;;;;6211532;23;20011;-60
2022/01/26 01:20:15;;;;;;;66.00;27.02;;;5.20;91.30;;;;;;6191751;23;20035;-60
2022/01/26 01:22:57;;;;;;;73.22;28.23;;;5.20;91.30;;;;;;6193750;23;20061;-62
2022/01/26 01:30:48;;;;;;;64.07;26.80;;;5.10;91.30;;;;;;6214071;23;20330;-61
2022/01/26 01:33:24;;;;;;;52.90;27.02;;;5.10;91.30;;;;;;6239566;23;20515;-62
2022/01/26 01:35:49;;;;;;;59.72;26.30;;;5.10;91.30;;;;;;6240703;23;19999;-62
2022/01/26 01:38:18;;;;;;;63.35;27.55;;;5.10;91.30;;;;;;6214505;23;20031;-62
2022/01/26 01:40:48;;;;;;;52.17;27.27;;;5.00;91.30;;;;;;6213486;23;20086;-61
2022/01/26 01:43:14;;;;;;;65.70;26.45;;;5.10;91.40;;;;;;6187419;23;20008;-61
2022/01/26 01:45:44;;;;;;;66.78;27.75;;;5.10;91.30;;;;;;6212264;23;20012;-63
2022/01/26 01:48:16;;;;;;;58.75;26.90;;;5.00;91.20;;;;;;6189787;23;20000;-62
2022/01/26 01:50:42;;;;;;;59.30;26.25;;;5.00;91.30;;;;;;6190186;23;20000;-61
2022/01/26 01:53:09;;;;;;;52.88;26.88;;;5.00;91.30;;;;;;6239244;23;20076;-60
2022/01/26 01:55:37;;;;;;;66.57;29.38;;;5.00;91.30;;;;;;6210187;23;20011;-62
2022/01/26 01:58:02;;;;;;;72.38;30.15;;;5.00;91.20;;;;;;6212771;23;20300;-60
2022/01/26 02:00:28;;;;;;;66.35;29.10;;;5.00;91.30;;;;;;6187105;23;20000;-61
2022/01/26 02:02:54;;;;;;;60.60;27.48;;;5.00;91.20;;;;;;6239815;23;20000;-61
2022/01/26 02:05:20;;;;;;;65.90;28.90;;;5.00;91.20;;;;;;6241429;23;20103;-63
2022/01/26 02:07:45;;;;;;;54.47;27.88;;;5.00;91.30;;;;;;6211707;23;20008;-60
2022/01/26 02:10:11;;;;;;;58.55;26.52;;;4.90;91.30;;;;;;6211097;23;20001;-62
2022/01/26 02:12:45;;;;;;;68.35;28.23;;;4.90;91.30;;;;;;6213161;23;20299;-61
2022/01/26 02:15:17;;;;;;;53.28;26.88;;;4.90;91.30;;;;;;6240177;23;20505;-62
2022/01/26 02:18:09;;;;;;;59.88;25.58;;;4.90;91.40;;;;;;6215163;23;20011;-62
2022/01/26 02:49:35;;;;;;;49.78;25.38;;;4.80;91.40;;;;;;6217460;23;20518;-61
2022/01/26 02:56:24;;;;;;;57.33;26.13;;;4.80;91.70;;;;;;6240416;23;20027;-64
2022/01/26 03:01:46;;;;;;;43.28;23.55;;;4.80;91.70;;;;;;6212475;23;20293;-64
2022/01/26 03:04:21;;;;;;;41.60;23.30;;;4.70;91.70;;;;;;6238472;23;20079;-67
2022/01/26 03:07:04;;;;;;;43.63;23.40;;;4.80;91.70;;;;;;6240028;23;20398;-59
2022/01/26 03:09:36;;;;;;;37.75;22.52;;;4.70;91.70;;;;;;6239387;23;20035;-60
2022/01/26 03:12:03;;;;;;;48.45;22.83;;;4.70;91.70;;;;;;6213781;23;20092;-61
2022/01/26 03:14:49;;;;;;;41.00;22.95;;;4.70;91.70;;;;;;6211276;23;20020;-62
2022/01/26 03:19:56;;;;;;;43.92;24.27;;;4.70;91.70;;;;;;6215876;23;20058;-60
2022/01/26 03:33:25;;;;;;;47.05;23.42;;;4.70;91.70;;;;;;6240573;23;20414;-62
2022/01/26 03:35:55;;;;;;;46.47;22.08;;;4.70;91.70;;;;;;6214132;23;20317;-62
2022/01/26 03:38:39;;;;;;;44.95;23.10;;;4.70;91.60;;;;;;6214273;23;20069;-62
2022/01/26 03:41:33;;;;;;;36.75;21.65;;;4.70;91.60;;;;;;6239750;23;20452;-60
2022/01/26 03:43:59;;;;;;;41.78;22.02;;;4.70;91.70;;;;;;6173931;23;20008;-62
2022/01/26 03:46:25;;;;;;;45.17;24.05;;;4.70;91.70;;;;;;6239653;23;20010;-62
2022/01/26 03:48:50;;;;;;;36.22;21.80;;;4.70;91.80;;;;;;6239899;23;20004;-60
2022/01/26 03:51:16;;;;;;;38.65;21.42;;;4.60;91.80;;;;;;6212664;23;20050;-60
2022/01/26 03:53:41;;;;;;;42.10;21.67;;;4.60;91.80;;;;;;6212279;23;20138;-60
2022/01/26 03:56:07;;;;;;;40.88;21.95;;;4.60;91.80;;;;;;6207668;23;20060;-60
2022/01/26 03:58:32;;;;;;;37.25;21.48;;;4.60;91.80;;;;;;6210185;23;20059;-60
2022/01/26 04:00:58;;;;;;;40.50;21.48;;;4.60;91.80;;;;;;6209548;23;20071;-61
2022/01/26 04:03:23;;;;;;;34.63;20.02;;;4.60;91.80;;;;;;6209401;23;20491;-61
2022/01/26 04:05:49;;;;;;;35.58;21.92;;;4.60;91.90;;;;;;6207269;23;20008;-63
2022/01/26 04:08:20;;;;;;;37.30;21.15;;;4.60;91.80;;;;;;6207871;23;20012;-60
2022/01/26 04:13:11;;;;;;;33.60;20.63;;;4.60;91.80;;;;;;6212267;23;20031;-61
2022/01/26 04:15:38;;;;;;;43.38;19.92;;;4.60;91.90;;;;;;6209567;23;20004;-62
2022/01/26 04:18:06;;;;;;;39.25;21.15;;;4.60;91.80;;;;;;6208181;23;20080;-60
2022/01/26 04:20:37;;;;;;;41.13;21.60;;;4.60;91.80;;;;;;6183794;23;20059;-62
2022/01/26 04:23:18;;;;;;;43.58;22.33;;;4.60;91.90;;;;;;6185312;23;20554;-60
2022/01/26 04:25:46;;;;;;;31.55;20.35;;;4.60;91.90;;;;;;6211336;23;19996;-61
2022/01/26 04:28:17;;;;;;;38.40;21.17;;;4.60;91.90;;;;;;6209666;23;20343;-62
2022/01/26 04:30:43;;;;;;;32.80;20.58;;;4.50;91.90;;;;;;6209115;23;20370;-60
2022/01/26 04:33:08;;;;;;;36.03;20.50;;;4.50;91.90;;;;;;6209653;23;20001;-60
2022/01/26 04:35:34;;;;;;;35.70;20.23;;;4.50;92.20;;;;;;6207820;23;20159;-60
2022/01/26 04:38:15;;;;;;;32.00;20.42;;;4.50;92.00;;;;;;6210751;23;20031;-60
2022/01/26 04:40:51;;;;;;;31.33;19.45;;;4.50;91.90;;;;;;6210348;23;20012;-62
2022/01/26 04:43:21;;;;;;;33.53;21.73;;;4.50;91.90;;;;;;6186436;23;20462;-61
2022/01/26 04:45:47;;;;;;;36.60;20.20;;;4.50;91.80;;;;;;6208258;23;20040;-63
2022/01/26 04:48:13;;;;;;;35.05;20.75;;;4.50;91.90;;;;;;6207856;23;20007;-61
2022/01/26 04:50:38;;;;;;;35.92;20.52;;;4.50;91.90;;;;;;6207330;23;20252;-62
2022/01/26 04:53:04;;;;;;;32.67;20.33;;;4.60;92.00;;;;;;6184122;23;20076;-59
2022/01/26 04:55:29;;;;;;;30.73;20.27;;;4.80;92.00;;;;;;6213443;23;20073;-62
2022/01/26 04:57:55;;;;;;;37.45;20.02;;;4.60;91.90;;;;;;6239416;23;20074;-60
2022/01/26 05:00:20;;;;;;;38.53;19.70;;;4.60;91.90;;;;;;6211516;23;20098;-62
2022/01/26 05:02:46;;;;;;;33.08;19.60;;;4.50;91.90;;;;;;6188097;23;20330;-61
2022/01/26 05:05:12;;;;;;;33.08;19.30;;;4.60;91.90;;;;;;6240630;23;20047;-60
2022/01/26 05:07:37;;;;;;;32.25;19.17;;;4.60;91.90;;;;;;6241654;23;20076;-60
2022/01/26 05:10:04;;;;;;;35.03;20.98;;;4.60;91.90;;;;;;6210925;23;20892;-61
2022/01/26 05:12:30;;;;;;;36.83;20.08;;;4.50;91.90;;;;;;6209894;23;20004;-62
2022/01/26 05:14:55;;;;;;;30.75;20.20;;;4.50;92.00;;;;;;6212393;23;20035;-63
2022/01/26 05:17:22;;;;;;;36.47;20.05;;;4.50;92.00;;;;;;6241169;23;20000;-61
2022/01/26 05:19:53;;;;;;;32.00;20.08;;;4.50;92.00;;;;;;6240597;23;20001;-62
2022/01/26 05:22:19;;;;;;;33.25;19.00;;;4.50;92.00;;;;;;6210809;23;20575;-60
2022/01/26 05:24:44;;;;;;;30.73;18.80;;;4.50;92.00;;;;;;6237928;23;20004;-61
2022/01/26 05:27:10;;;;;;;35.22;19.38;;;4.50;92.10;;;;;;6239377;23;20004;-61
2022/01/26 05:29:35;;;;;;;28.27;19.05;;;4.50;92.10;;;;;;6240312;23;20000;-62
2022/01/26 05:32:01;;;;;;;32.28;20.13;;;4.50;92.10;;;;;;6240137;23;20000;-61
2022/01/26 05:34:26;;;;;;;37.78;19.42;;;4.50;92.10;;;;;;6240249;23;20434;-62
2022/01/26 05:36:52;;;;;;;29.90;19.33;;;4.50;92.10;;;;;;6212272;23;20031;-62
2022/01/26 05:39:17;;;;;;;62.95;22.10;;;4.50;92.10;;;;;;6238416;23;20011;-60
2022/01/26 05:41:43;;;;;;;70.53;20.95;;;4.50;92.20;;;;;;6213188;23;20022;-60
2022/01/26 05:44:08;;;;;;;54.72;21.42;;;4.50;92.20;;;;;;6213386;23;20322;-60
2022/01/26 05:49:02;;;;;;;44.75;20.85;;;4.40;92.10;;;;;;6239343;23;20039;-60
2022/01/26 05:51:31;;;;;;;46.25;20.17;;;4.50;92.10;;;;;;6211329;23;20054;-62
2022/01/26 05:53:57;;;;;;;58.08;22.20;;;4.50;92.20;;;;;;6187226;23;20428;-60
2022/01/26 05:56:22;;;;;;;57.72;21.02;;;4.40;92.10;;;;;;6213757;23;20087;-61
2022/01/26 05:58:48;;;;;;;50.40;20.90;;;4.50;92.20;;;;;;6188796;23;20011;-63
2022/01/26 06:01:14;;;;;;;54.15;20.15;;;4.40;92.30;;;;;;6212647;23;20031;-63
2022/01/26 06:03:40;;;;;;;39.95;20.38;;;4.40;92.30;;;;;;6237506;23;20008;-64
2022/01/26 06:06:05;;;;;;;38.30;18.95;;;4.40;92.30;;;;;;6211024;23;20411;-64
2022/01/26 06:08:31;;;;;;;42.88;19.98;;;4.40;92.30;;;;;;6212321;23;20447;-63
2022/01/26 06:10:57;;;;;;;34.25;19.63;;;4.40;92.40;;;;;;6239927;23;20482;-61
2022/01/26 06:13:23;;;;;;;36.20;18.27;;;4.40;92.30;;;;;;6163990;23;20000;-59
2022/01/26 06:15:49;;;;;;;39.45;19.70;;;4.40;92.40;;;;;;6211267;23;20073;-61
2022/01/26 06:18:14;;;;;;;41.08;19.70;;;4.40;92.50;;;;;;6238166;23;20076;-60
2022/01/26 06:20:40;;;;;;;39.75;19.83;;;4.20;92.40;;;;;;6238580;23;20010;-61
2022/01/26 06:23:05;;;;;;;47.85;20.17;;;4.40;92.50;;;;;;6239840;23;20004;-59
2022/01/26 06:25:31;;;;;;;33.85;18.77;;;4.40;92.40;;;;;;6240193;23;20005;-62
2022/01/26 06:27:59;;;;;;;35.22;18.48;;;4.40;92.30;;;;;;6212794;23;20086;-60
2022/01/26 06:30:25;;;;;;;36.80;18.98;;;4.40;92.40;;;;;;6211193;23;20418;-62
2022/01/26 06:32:50;;;;;;;39.97;18.70;;;4.40;92.30;;;;;;6185204;23;20011;-61
2022/01/26 06:35:16;;;;;;;43.10;19.75;;;4.40;92.40;;;;;;6238531;23;20003;-61
2022/01/26 06:37:43;;;;;;;43.25;18.20;;;4.40;92.30;;;;;;6184783;23;20311;-63
2022/01/26 06:40:08;;;;;;;32.83;18.35;;;4.40;92.30;;;;;;6210201;23;20014;-61
2022/01/26 06:42:48;;;;;;;31.48;19.15;;;4.40;92.40;;;;;;6236395;23;20426;-61
2022/01/26 06:45:17;;;;;;;32.97;18.58;;;4.40;92.50;;;;;;6191530;23;20024;-63
2022/01/26 06:50:11;;;;;;;30.70;19.27;;;4.40;92.30;;;;;;6213351;23;20087;-60
2022/01/26 06:52:36;;;;;;;32.28;17.48;;;4.40;92.30;;;;;;6213149;23;20375;-59
2022/01/26 06:55:04;;;;;;;36.53;18.23;;;4.40;92.30;;;;;;6211830;23;20325;-62
2022/01/26 06:57:29;;;;;;;39.63;18.92;;;4.40;92.40;;;;;;6211531;23;20499;-61
2022/01/26 06:59:55;;;;;;;36.28;19.85;;;4.40;92.30;;;;;;6237889;23;20000;-62
2022/01/26 07:02:20;;;;;;;32.42;17.52;;;4.40;92.30;;;;;;6237841;23;20004;-62
2022/01/26 07:04:46;;;;;;;27.17;18.80;;;4.40;92.30;;;;;;6239042;23;20004;-61
2022/01/26 07:07:11;;;;;;;32.92;18.27;;;4.30;92.20;;;;;;6234808;23;20005;-61
2022/01/26 07:09:37;;;;;;;37.72;18.20;;;4.30;92.30;;;;;;6235337;23;20314;-61
2022/01/26 07:12:03;;;;;;;29.95;17.33;;;4.40;92.20;;;;;;6235628;23;20342;-60
2022/01/26 07:20:51;;;;;;;32.63;18.63;;;4.30;92.10;;;;;;6236844;23;20015;-61
2022/01/26 07:22:50;;;;;;;33.72;17.88;;;4.30;92.10;;;;;;6215943;23;20140;-60
2022/01/26 07:25:16;;;;;;;28.00;17.58;;;4.30;92.10;;;;;;6208283;23;20095;-61
2022/01/26 07:27:42;;;;;;;37.95;17.92;;;4.30;92.10;;;;;;6211661;23;20345;-60
2022/01/26 07:30:09;;;;;;;28.33;17.42;;;4.30;92.10;;;;;;6239730;23;20007;-62
2022/01/26 07:32:36;;;;;;;29.38;16.90;;;4.30;92.10;;;;;;6212546;23;20282;-60
2022/01/26 07:35:05;;;;;;;38.97;17.92;;;4.30;92.00;;;;;;6210366;23;20030;-62
2022/01/26 07:37:30;;;;;;;48.45;17.92;;;4.30;92.10;;;;;;6160473;23;20026;-60
2022/01/26 07:40:06;;;;;;;44.78;18.02;;;4.30;92.10;;;;;;6184445;23;20079;-62
2022/01/26 07:42:31;;;;;;;52.45;18.20;;;4.30;92.00;;;;;;6212568;23;20028;-61
2022/01/26 07:44:57;;;;;;;46.92;19.20;;;4.30;91.90;;;;;;6237241;23;20008;-60
2022/01/26 07:47:23;;;;;;;67.55;19.02;;;4.20;91.80;;;;;;6236843;23;20452;-62
2022/01/26 07:49:50;;;;;;;56.05;19.48;;;4.30;91.90;;;;;;6208829;23;20114;-61
2022/01/26 07:52:16;;;;;;;39.00;18.42;;;4.30;92.10;;;;;;6208995;23;20004;-62
2022/01/26 07:54:44;;;;;;;47.97;18.27;;;4.30;91.80;;;;;;6210188;23;20039;-60
2022/01/26 07:57:09;;;;;;;60.72;20.13;;;4.40;91.80;;;;;;6204548;23;20016;-60
2022/01/26 07:59:35;;;;;;;61.63;17.92;;;4.30;91.80;;;;;;6199339;23;20352;-62
2022/01/26 08:02:00;;;;;;;49.63;19.42;;;4.30;91.70;;;;;;6203959;23;20076;-62
2022/01/26 08:04:26;;;;;;;56.83;19.83;;;4.30;91.70;;;;;;6205185;23;20338;-62
2022/01/26 08:06:51;;;;;;;47.92;17.10;;;4.30;91.70;;;;;;6176017;23;20004;-62
2022/01/26 08:09:17;;;;;;;64.32;20.58;;;4.30;91.70;;;;;;6206946;23;20026;-61
2022/01/26 08:11:43;;;;;;;51.53;19.15;;;4.30;91.60;;;;;;6205993;23;20204;-60
2022/01/26 08:14:08;;;;;;;46.05;20.58;;;4.20;91.60;;;;;;6178126;23;20000;-60
2022/01/26 08:16:34;;;;;;;48.70;19.52;;;4.20;91.60;;;;;;6152338;23;20008;-59
2022/01/26 08:19:00;;;;;;;68.18;19.83;;;4.20;91.60;;;;;;6203665;23;20012;-63
2022/01/26 08:21:25;;;;;;;101.05;21.50;;;4.30;91.70;;;;;;6206500;23;20073;-61
2022/01/26 08:23:51;;;;;;;59.00;18.10;;;4.20;91.70;;;;;;6208368;23;20008;-62
2022/01/26 08:26:22;;;;;;;46.65;19.08;;;4.30;91.80;;;;;;6203358;23;20092;-62
2022/01/26 08:28:53;;;;;;;59.22;19.67;;;4.30;91.70;;;;;;6180336;23;20443;-61
2022/01/26 08:31:19;;;;;;;53.60;18.40;;;4.20;91.60;;;;;;6153670;23;20008;-60
2022/01/26 08:33:44;;;;;;;71.35;19.13;;;4.20;91.60;;;;;;6153928;23;20121;-61
2022/01/26 08:36:10;;;;;;;62.40;18.60;;;4.20;91.60;;;;;;6206716;23;20452;-63
2022/01/26 08:38:36;;;;;;;47.33;17.67;;;3.90;91.50;;;;;;6207491;23;20048;-62
2022/01/26 08:41:01;;;;;;;57.80;19.48;;;4.20;91.50;;;;;;6205535;23;20406;-62
2022/01/26 08:43:27;;;;;;;61.78;18.55;;;4.30;91.60;;;;;;6205988;23;20220;-63
2022/01/26 08:45:52;;;;;;;54.95;18.50;;;4.30;91.60;;;;;;6206320;23;20005;-63
2022/01/26 08:48:18;;;;;;;64.28;19.15;;;4.30;91.50;;;;;;6209360;23;20001;-62
2022/01/26 08:50:43;;;;;;;84.93;19.95;;;4.20;91.50;;;;;;6205530;23;20004;-61
2022/01/26 08:53:09;;;;;;;71.63;20.33;;;4.30;91.60;;;;;;6206098;23;20054;-62
2022/01/26 08:55:36;;;;;;;65.43;21.25;;;4.30;91.60;;;;;;6208106;23;20394;-62
2022/01/26 08:58:02;;;;;;;67.53;20.15;;;4.30;91.50;;;;;;6235645;23;20000;-64
2022/01/26 09:00:28;;;;;;;175.13;29.40;;;4.30;91.60;;;;;;6213453;23;20246;-63
2022/01/26 09:02:55;;;;;;;127.68;25.15;;;4.30;91.60;;;;;;6212855;23;20000;-63
2022/01/26 09:05:20;;;;;;;64.45;19.88;;;4.30;91.60;;;;;;6211653;23;20497;-64
2022/01/26 09:07:47;;;;;;;87.40;21.52;;;4.30;91.60;;;;;;6211423;23;20091;-62
2022/01/26 09:10:12;;;;;;;67.72;20.27;;;4.30;91.60;;;;;;6209055;23;20000;-63
2022/01/26 09:12:41;;;;;;;73.35;21.27;;;4.30;91.60;;;;;;6234384;23;20058;-62
2022/01/26 09:15:07;;;;;;;54.95;21.10;;;4.30;91.60;;;;;;6236813;23;20001;-64
2022/01/26 09:17:34;;;;;;;61.80;20.98;;;4.30;91.60;;;;;;6208761;23;20465;-65
2022/01/26 09:20:02;;;;;;;66.97;20.42;;;4.40;91.50;;;;;;6207007;23;20004;-63
2022/01/26 09:22:28;;;;;;;69.00;20.02;;;4.30;91.50;;;;;;6183920;23;20104;-63
2022/01/26 09:24:53;;;;;;;60.33;20.02;;;4.40;91.50;;;;;;6208016;23;20452;-63
2022/01/26 09:27:19;;;;;;;55.55;19.05;;;4.40;91.50;;;;;;6238743;23;20102;-62
2022/01/26 09:29:45;;;;;;;66.65;20.33;;;4.40;91.50;;;;;;6209982;23;20004;-64
2022/01/26 09:32:11;;;;;;;89.10;23.13;;;4.30;91.50;;;;;;6184669;23;20011;-63
2022/01/26 09:34:37;;;;;;;66.95;20.40;;;4.30;91.40;;;;;;6177777;23;20014;-61
2022/01/26 09:37:04;;;;;;;72.32;20.63;;;4.40;91.50;;;;;;6205010;23;20085;-64
2022/01/26 09:39:29;;;;;;;68.85;21.25;;;4.30;91.50;;;;;;6204024;23;20000;-61
2022/01/26 09:41:55;;;;;;;56.60;21.08;;;4.40;91.60;;;;;;6207902;23;20008;-60
2022/01/26 09:44:21;;;;;;;80.05;23.25;;;4.40;91.60;;;;;;6206484;23;20016;-64
2022/01/26 09:46:47;;;;;;;58.83;20.58;;;4.40;91.60;;;;;;6181895;23;20067;-63
2022/01/26 09:49:16;;;;;;;79.25;20.92;;;4.40;91.70;;;;;;6205238;23;20544;-64
2022/01/26 09:51:44;;;;;;;69.00;22.08;;;4.40;91.60;;;;;;6204745;23;20355;-61
2022/01/26 09:54:14;;;;;;;71.30;21.75;;;4.40;91.70;;;;;;6204959;23;20003;-63
2022/01/26 09:56:39;;;;;;;64.82;19.45;;;4.40;91.70;;;;;;6205064;23;20020;-62
2022/01/26 09:59:08;;;;;;;47.22;19.75;;;4.40;91.90;;;;;;6179101;23;20008;-63
2022/01/26 10:01:44;;;;;;;56.40;18.90;;;4.40;91.60;;;;;;6180569;23;20627;-64
2022/01/26 10:04:28;;;;;;;46.97;18.83;;;4.40;91.50;;;;;;6178996;23;20016;-64
2022/01/26 10:07:00;;;;;;;51.95;20.40;;;4.40;91.50;;;;;;6205622;23;20347;-62
2022/01/26 10:17:41;;;;;;;43.97;18.75;;;4.40;91.50;;;;;;6213208;23;20405;-62
2022/01/26 10:20:09;;;;;;;45.00;20.00;;;4.40;91.50;;;;;;6209847;23;20307;-62
2022/01/26 10:22:35;;;;;;;58.13;20.25;;;4.40;91.50;;;;;;6210694;23;20000;-63
2022/01/26 10:25:09;;;;;;;40.20;20.05;;;4.40;91.50;;;;;;6208058;23;20216;-63
2022/01/26 10:27:42;;;;;;;51.45;18.65;;;4.40;91.80;;;;;;6182913;23;20014;-63
2022/01/26 10:30:09;;;;;;;48.47;19.33;;;4.40;91.50;;;;;;6206321;23;20054;-65
2022/01/26 10:32:35;;;;;;;48.05;19.63;;;4.40;91.60;;;;;;6181983;23;20361;-63
2022/01/26 10:35:01;;;;;;;43.25;18.58;;;4.40;91.60;;;;;;6180294;23;20000;-61
2022/01/26 10:37:27;;;;;;;38.03;19.40;;;4.40;91.60;;;;;;6182330;23;20046;-62
2022/01/26 10:39:56;;;;;;;44.17;19.65;;;4.40;91.50;;;;;;6236428;23;20432;-62
2022/01/26 10:42:23;;;;;;;43.42;19.35;;;4.40;91.50;;;;;;6209149;23;20012;-62
2022/01/26 10:45:01;;;;;;;44.38;18.77;;;4.40;91.50;;;;;;6236687;23;20031;-61
2022/01/26 10:47:31;;;;;;;39.38;17.58;;;4.40;91.50;;;;;;6237668;23;20023;-63
2022/01/26 10:52:43;;;;;;;46.70;19.00;;;4.40;91.50;;;;;;6149560;23;20020;-63
2022/01/26 10:55:09;;;;;;;37.70;18.30;;;4.30;91.50;;;;;;6206776;23;20004;-61
2022/01/26 10:57:35;;;;;;;50.30;19.00;;;4.40;91.60;;;;;;6209422;23;20043;-62
2022/01/26 11:00:01;;;;;;;49.00;19.17;;;4.40;91.70;;;;;;6237973;23;20402;-61
2022/01/26 11:02:30;;;;;;;51.42;17.80;;;4.40;91.70;;;;;;6185554;23;20004;-63
2022/01/26 11:04:56;;;;;;;38.75;18.95;;;4.40;91.70;;;;;;6185010;23;20016;-63
2022/01/26 11:07:40;;;;;;;40.83;17.33;;;4.40;91.70;;;;;;6208910;23;20334;-63
2022/01/26 11:10:07;;;;;;;42.40;19.10;;;4.40;91.70;;;;;;6183167;23;20011;-63
2022/01/26 11:12:32;;;;;;;46.75;17.45;;;4.40;91.60;;;;;;6235335;23;20001;-64
2022/01/26 11:15:04;;;;;;;45.22;19.27;;;4.40;91.60;;;;;;6207288;23;20077;-62
2022/01/26 11:17:37;;;;;;;35.13;17.10;;;4.40;91.70;;;;;;6206471;23;20135;-61
2022/01/26 11:20:29;;;;;;;31.77;16.63;;;4.30;91.70;;;;;;6185838;23;20004;-64
2022/01/26 11:22:56;;;;;;;37.42;17.05;;;4.40;91.70;;;;;;6235450;23;20079;-62
2022/01/26 11:25:23;;;;;;;36.72;17.27;;;4.40;91.70;;;;;;6208604;23;20393;-63
2022/01/26 11:27:50;;;;;;;39.72;16.83;;;4.40;91.70;;;;;;6209143;23;20004;-62
2022/01/26 11:30:22;;;;;;;35.63;18.13;;;4.40;91.70;;;;;;6208222;23;20719;-63
2022/01/26 11:32:51;;;;;;;39.83;16.65;;;4.40;91.70;;;;;;6183236;23;20266;-62
2022/01/26 11:35:18;;;;;;;47.78;18.05;;;4.40;91.70;;;;;;6209748;23;20007;-62
2022/01/26 11:37:45;;;;;;;45.10;17.40;;;4.40;91.70;;;;;;6184587;23;20004;-64
2022/01/26 11:45:53;;;;;;;36.40;16.98;;;4.50;91.70;;;;;;6194525;23;20158;-63
2022/01/26 11:48:23;;;;;;;55.55;18.15;;;4.50;91.80;;;;;;6185445;23;20082;-62
2022/01/26 11:51:01;;;;;;;53.08;16.75;;;4.40;91.80;;;;;;6238172;23;20132;-61
2022/01/26 11:53:27;;;;;;;43.70;17.27;;;4.50;91.80;;;;;;6158284;23;20384;-61
2022/01/26 11:56:00;;;;;;;47.08;16.80;;;4.50;91.80;;;;;;6203230;23;20188;-63
2022/01/26 11:58:34;;;;;;;35.65;16.60;;;4.70;91.80;;;;;;6206824;23;20306;-62
2022/01/26 12:01:21;;;;;;;38.30;17.15;;;4.50;91.70;;;;;;6205643;23;20054;-63
2022/01/26 12:04:02;;;;;;;103.95;21.08;;;4.50;91.80;;;;;;6233257;23;20007;-65
2022/01/26 12:06:36;;;;;;;55.08;17.83;;;4.50;91.90;;;;;;6156561;23;20000;-64
2022/01/26 12:09:03;;;;;;;50.65;17.83;;;4.50;91.90;;;;;;6199358;23;20023;-62
2022/01/26 12:11:29;;;;;;;48.67;17.23;;;4.50;91.90;;;;;;6232505;23;20062;-61
2022/01/26 12:14:06;;;;;;;44.63;16.73;;;4.50;91.90;;;;;;6208844;23;20338;-62
2022/01/26 12:16:33;;;;;;;44.10;15.48;;;4.50;92.00;;;;;;6159194;23;20512;-63
2022/01/26 12:19:12;;;;;;;53.03;17.63;;;4.50;91.90;;;;;;6237697;23;20102;-61
2022/01/26 12:38:31;;;;;;;70.82;19.10;;;4.60;92.00;;;;;;6235321;23;20054;-62
2022/01/26 12:43:53;;;;;;;107.78;21.52;;;4.60;92.00;;;;;;6235255;23;20058;-62
2022/01/26 12:46:21;;;;;;;73.75;19.98;;;4.60;92.00;;;;;;6207509;23;20074;-62
2022/01/26 12:49:14;;;;;;;56.88;18.90;;;4.60;92.10;;;;;;6183828;23;20083;-62
2022/01/26 12:51:43;;;;;;;68.95;17.98;;;4.60;92.10;;;;;;6233018;23;20018;-63
2022/01/26 12:54:09;;;;;;;60.22;19.13;;;4.60;92.20;;;;;;6209084;23;20059;-63
2022/01/26 12:56:34;;;;;;;73.25;18.67;;;4.70;92.30;;;;;;6210113;23;20071;-62
2022/01/26 12:59:02;;;;;;;61.65;19.85;;;4.70;92.30;;;;;;6182014;23;20456;-63
2022/01/26 13:01:27;;;;;;;75.15;17.88;;;4.70;92.30;;;;;;6160879;23;20326;-63
2022/01/26 13:03:57;;;;;;;71.50;18.42;;;4.80;92.30;;;;;;6187003;23;20004;-63
2022/01/26 13:06:23;;;;;;;62.50;18.58;;;4.80;92.20;;;;;;6186684;23;20280;-62
2022/01/26 13:08:53;;;;;;;64.50;19.05;;;4.80;92.30;;;;;;6183526;23;20512;-63
2022/01/26 13:11:30;;;;;;;81.90;21.95;;;4.80;92.40;;;;;;6208939;23;20368;-63
2022/01/26 13:14:25;;;;;;;70.97;20.77;;;4.90;92.50;;;;;;6183261;23;20410;-61
2022/01/26 13:17:34;;;;;;;94.72;21.02;;;4.80;92.50;;;;;;6204767;23;20009;-62
2022/01/26 13:25:32;;;;;;;81.97;21.20;;;5.00;92.70;;;;;;6214035;23;20008;-63
2022/01/26 13:28:53;;;;;;;125.57;26.60;;;5.00;92.60;;;;;;6238701;23;20159;-61
2022/01/26 13:33:36;;;;;;;141.52;27.40;;;5.00;92.60;;;;;;6235173;23;20004;-63
2022/01/26 13:49:11;;;;;;;123.03;24.65;;;5.10;92.90;;;;;;6193989;23;20096;-63
2022/01/26 13:57:13;;;;;;;129.15;25.00;;;5.30;92.80;;;;;;6166432;23;20310;-63
2022/01/26 13:59:48;;;;;;;153.98;27.70;;;5.20;92.60;;;;;;6214362;23;20008;-62
2022/01/26 14:02:13;;;;;;;131.45;25.50;;;5.20;92.60;;;;;;6187083;23;20074;-63
2022/01/26 14:04:39;;;;;;;146.98;26.52;;;5.30;92.60;;;;;;6211254;23;20008;-63
2022/01/26 14:07:05;;;;;;;171.77;28.55;;;5.20;92.50;;;;;;6234892;23;20054;-61
2022/01/26 14:09:30;;;;;;;146.80;26.30;;;5.30;92.50;;;;;;6158464;23;20024;-61
2022/01/26 14:11:58;;;;;;;149.02;28.23;;;5.30;92.50;;;;;;6185815;23;20000;-61
2022/01/26 14:14:31;;;;;;;183.90;29.55;;;5.30;92.40;;;;;;6235681;23;20011;-61
2022/01/26 14:16:59;;;;;;;152.82;27.02;;;5.30;92.40;;;;;;6186473;23;20004;-61
2022/01/26 14:19:39;;;;;;;150.90;28.08;;;5.30;92.40;;;;;;6207630;23;20038;-61
2022/01/26 14:27:09;;;;;;;152.07;26.90;;;5.30;92.30;;;;;;6205775;23;20008;-64
2022/01/26 14:40:02;;;;;;;130.23;26.90;;;5.40;92.10;;;;;;6181989;23;20019;-61
2022/01/26 14:54:00;;;;;;;145.30;25.15;;;5.50;91.80;;;;;;6213248;23;20384;-62
2022/01/26 15:33:52;;;;;;;180.40;29.70;;;5.80;91.60;;;;;;6206263;23;20425;-61
2022/01/26 15:52:37;;;;;;;182.00;29.55;;;6.00;91.50;;;;;;6206385;23;20012;-63
2022/01/26 16:06:08;;;;;;;172.25;30.00;;;6.20;91.50;;;;;;6231962;23;20070;-61
2022/01/26 16:21:33;;;;;;;245.60;37.60;;;6.20;91.40;;;;;;6230227;23;20163;-62
2022/01/26 16:27:42;;;;;;;226.82;35.22;;;6.30;91.50;;;;;;6183537;23;20011;-60
2022/01/26 16:35:29;;;;;;;233.25;36.15;;;6.20;91.50;;;;;;6234597;23;20129;-63
2022/01/26 16:52:24;;;;;;;206.18;32.97;;;6.30;91.60;;;;;;6209782;23;20008;-60
2022/01/26 17:11:07;;;;;;;221.15;37.20;;;6.20;91.90;;;;;;6227584;23;20074;-63
2022/01/26 17:34:27;;;;;;;184.77;33.83;;;6.30;91.60;;;;;;6206926;23;20028;-60
2022/01/26 18:06:38;;;;;;;163.15;31.08;;;6.20;92.00;;;;;;6191583;23;20085;-61
2022/01/26 18:16:27;;;;;;;190.82;35.85;;;6.20;92.10;;;;;;6232186;23;20419;-60
2022/01/26 18:32:46;;;;;;;166.98;29.08;;;5.90;91.70;;;;;;6211671;23;20037;-62
2022/01/26 18:49:13;;;;;;;140.95;28.95;;;6.20;91.70;;;;;;6231610;23;20107;-61
2022/01/26 18:51:43;;;;;;;163.25;30.38;;;6.20;91.70;;;;;;6199376;23;20138;-61
2022/01/26 18:54:09;;;;;;;137.77;29.98;;;6.20;91.70;;;;;;6180947;23;20011;-62
2022/01/26 18:56:35;;;;;;;166.52;30.52;;;6.10;92.00;;;;;;6231278;23;20099;-60
2022/01/26 18:59:01;;;;;;;196.27;33.22;;;6.10;91.80;;;;;;6177837;23;20062;-62
2022/01/26 19:01:27;;;;;;;181.13;31.73;;;6.10;91.80;;;;;;6203313;23;20037;-62